Other Surface Observations
Issued by NWS Great Falls, MT

Home | Current Version | Previous Version | Text Only | Print | Product List | Glossary On
Versions: 1 2 3 4 5 6 7 8 9 10 11 12 13 14 15 16 17 18 19 20 21 22 23 24 25 26 27 28 29 30 31 32 33 34 35 36 37 38 39 40 41 42 43 44 45 46 47 48 49 50
757
SXUS55 KTFX 211329
OSOTFX
AREA AWOS OBSERVATIONS
NATIONAL WEATHER SERVICE GREAT FALLS MT
0729 AM MDT FRI JUL 21 2017

METAR KPWD 211330Z AUTO 00000KT 10SM 19/14 A2982 RMK PLENTYWOOD
METAR KPO1 211330Z AUTO 13003KT 9SM 19/16 A2981 RMK POPLAR
METAR K1S3 211330Z AUTO 26007KT 2 1/2SM 22/09 A2991 RMK FORSYTH
METAR KS71 211330Z AUTO 26008KT 10SM 18/06 A2993 RMK CHINOOK
METAR K38S 211300Z AUTO 00000KT 10SM 09/05 A3018 RMK DEER LODGE
METAR K3U3 211330Z AUTO 15004KT 10SM 12/06 A3017 RMK ANACONDA
METAR K6S5 211330Z AUTO 00000KT 10SM 14/06 A3013 RMK HAMILTON
METAR KS59 211330Z AUTO 00000KT 10SM 09/04 A3006 RMK LIBBY
METAR K88M 211330Z AUTO 10SM 13/04 A3006 RMK EUREKA



USA.gov is the U.S. government's official web portal to all federal, state and local government web resources and services.